createdAt,value
2023-04-27T00:00:00.941Z,98118.59
2023-04-27T00:03:35.635Z,98117.38
2023-04-27T00:06:42.445Z,98119.16
2023-04-27T00:09:48.326Z,98112.66
2023-04-27T00:12:55.425Z,98118.91
2023-04-27T00:16:03.980Z,98110.75
2023-04-27T00:19:14.189Z,98119.69
2023-04-27T00:22:22.195Z,98125.69
2023-04-27T00:25:29.180Z,98107.06
2023-04-27T00:28:35.192Z,98111.94
2023-04-27T00:31:41.928Z,98117.91
2023-04-27T00:34:50.514Z,98113.53
2023-04-27T00:37:57.947Z,98112.25
2023-04-27T00:41:09.480Z,98112.97
2023-04-27T00:44:16.206Z,98112.13
2023-04-27T00:47:22.985Z,98118.28
2023-04-27T00:50:34.476Z,98119.41
2023-04-27T00:53:42.033Z,98119.00
2023-04-27T00:56:52.160Z,98122.22
2023-04-27T00:59:58.670Z,98118.88
2023-04-27T01:03:06.629Z,98121.91
2023-04-27T01:06:15.191Z,98130.13
2023-04-27T01:09:24.104Z,98126.09
2023-04-27T01:12:30.077Z,98113.59
2023-04-27T01:15:37.059Z,98119.69
2023-04-27T01:18:44.619Z,98113.84
2023-04-27T01:21:54.054Z,98123.03
2023-04-27T01:25:02.575Z,98129.53
2023-04-27T01:28:11.327Z,98135.69
2023-04-27T01:31:17.719Z,98125.13
2023-04-27T01:34:27.161Z,98128.72
2023-04-27T01:37:33.069Z,98130.00
2023-04-27T01:40:42.529Z,98131.50
2023-04-27T01:43:48.399Z,98137.19
2023-04-27T01:46:55.190Z,98136.66
2023-04-27T01:50:01.143Z,98129.31
2023-04-27T01:53:07.905Z,98135.97
2023-04-27T01:56:17.050Z,98137.91
2023-04-27T01:59:23.915Z,98134.44
2023-04-27T02:02:31.009Z,98136.63
2023-04-27T02:05:37.996Z,98134.69
2023-04-27T02:08:44.036Z,98138.16
2023-04-27T02:11:53.337Z,98143.84
2023-04-27T02:14:59.403Z,98136.09
2023-04-27T02:18:06.907Z,98139.44
2023-04-27T02:21:13.266Z,98143.03
2023-04-27T02:24:20.564Z,98130.25
2023-04-27T02:27:29.256Z,98131.38
2023-04-27T02:30:38.159Z,98132.34
2023-04-27T02:33:44.176Z,98135.28
2023-04-27T02:36:50.958Z,98137.06
2023-04-27T02:39:56.950Z,98140.81
2023-04-27T02:43:06.599Z,98137.47
2023-04-27T02:46:12.629Z,98134.16
2023-04-27T02:49:19.653Z,98129.16
2023-04-27T02:52:25.755Z,98128.31
2023-04-27T02:55:32.991Z,98131.78
2023-04-27T02:58:41.477Z,98133.03
2023-04-27T03:01:51.659Z,98140.69
2023-04-27T03:04:57.902Z,98143.31
2023-04-27T03:08:04.703Z,98139.00
2023-04-27T03:11:12.817Z,98151.47
2023-04-27T03:14:23.492Z,98147.16
2023-04-27T03:17:31.558Z,98151.88
2023-04-27T03:20:38.325Z,98152.44
2023-04-27T03:23:44.318Z,98156.72
2023-04-27T03:26:51.527Z,98158.50
2023-04-27T03:30:03.870Z,98155.75
2023-04-27T03:33:10.752Z,98153.94
2023-04-27T03:36:16.886Z,98156.59
2023-04-27T03:39:23.743Z,98158.97
2023-04-27T03:42:29.871Z,98160.75
2023-04-27T03:45:39.481Z,98166.72
2023-04-27T03:48:47.498Z,98172.00
2023-04-27T03:51:54.754Z,98173.13
2023-04-27T03:55:00.864Z,98165.78
2023-04-27T03:58:07.817Z,98178.81
2023-04-27T04:01:16.929Z,98173.56
2023-04-27T04:04:24.821Z,98172.72
2023-04-27T04:07:31.511Z,98183.97
2023-04-27T04:10:39.543Z,98178.53
2023-04-27T04:13:46.439Z,98184.75
2023-04-27T04:16:56.180Z,98190.44
2023-04-27T04:20:02.491Z,98190.59
2023-04-27T04:23:09.537Z,98200.16
2023-04-27T04:26:15.845Z,98190.03
2023-04-27T04:29:22.998Z,98196.25
2023-04-27T04:32:32.212Z,98201.81
2023-04-27T04:35:41.838Z,98197.78
2023-04-27T04:38:47.957Z,98204.19
2023-04-27T04:41:56.736Z,98215.41
2023-04-27T04:45:07.678Z,98217.13
2023-04-27T04:48:18.433Z,98203.47
2023-04-27T04:51:24.853Z,98218.69
2023-04-27T04:54:31.847Z,98217.97
2023-04-27T04:57:38.242Z,98224.56
2023-04-27T05:00:46.047Z,98224.19
2023-04-27T05:03:56.559Z,98228.72
2023-04-27T05:07:04.875Z,98234.09
2023-04-27T05:10:12.064Z,98234.22
2023-04-27T05:13:18.957Z,98238.06
2023-04-27T05:16:26.740Z,98240.03
2023-04-27T05:19:37.320Z,98233.59
2023-04-27T05:22:47.765Z,98239.34
2023-04-27T05:25:54.473Z,98245.53
2023-04-27T05:29:00.361Z,98240.44
2023-04-27T05:32:17.092Z,98239.81
2023-04-27T05:35:25.740Z,98240.91
2023-04-27T05:38:33.754Z,98239.00
2023-04-27T05:41:39.834Z,98256.81
2023-04-27T05:44:46.629Z,98257.34
2023-04-27T05:47:52.781Z,98252.34
2023-04-27T05:51:09.362Z,98262.66
2023-04-27T05:54:15.376Z,98259.97
2023-04-27T05:57:22.244Z,98265.72
2023-04-27T06:00:28.847Z,98268.38
2023-04-27T06:03:35.975Z,98263.09
2023-04-27T06:06:45.104Z,98272.72
2023-04-27T06:09:56.918Z,98271.19
2023-04-27T06:13:05.028Z,98273.50
2023-04-27T06:16:18.130Z,98277.75
2023-04-27T06:19:24.122Z,98273.84
2023-04-27T06:22:34.635Z,98267.25
2023-04-27T06:25:40.992Z,98270.16
2023-04-27T06:28:47.993Z,98277.34
2023-04-27T06:31:53.946Z,98274.03
2023-04-27T06:35:00.993Z,98275.09
2023-04-27T06:38:10.765Z,98280.38
2023-04-27T06:41:17.516Z,98281.72
2023-04-27T06:44:25.861Z,98286.19
2023-04-27T06:47:32.824Z,98285.22
2023-04-27T06:50:38.741Z,98281.44
2023-04-27T06:53:48.172Z,98279.34
2023-04-27T06:56:55.088Z,98288.91
2023-04-27T07:00:02.225Z,98289.56
2023-04-27T07:03:08.388Z,98294.72
2023-04-27T07:06:15.388Z,98292.72
2023-04-27T07:09:27.500Z,98289.84
2023-04-27T07:12:34.688Z,98282.63
2023-04-27T07:15:40.760Z,98287.09
2023-04-27T07:18:47.588Z,98290.56
2023-04-27T07:21:53.685Z,98281.81
2023-04-27T07:25:04.502Z,98291.13
2023-04-27T07:28:10.689Z,98290.34
2023-04-27T07:31:18.012Z,98285.88
2023-04-27T07:34:24.337Z,98294.03
2023-04-27T07:37:31.456Z,98290.06
2023-04-27T07:40:40.655Z,98289.38
2023-04-27T07:43:48.690Z,98282.59
2023-04-27T07:46:58.805Z,98287.47
2023-04-27T07:50:06.551Z,98285.59
2023-04-27T07:53:12.590Z,98280.25
2023-04-27T07:56:22.012Z,98286.59
2023-04-27T07:59:28.094Z,98293.16
2023-04-27T08:02:35.085Z,98293.16
2023-04-27T08:05:41.423Z,98294.28
2023-04-27T08:08:48.364Z,98296.53
2023-04-27T08:11:57.314Z,98289.66
2023-04-27T08:15:04.299Z,98287.56
2023-04-27T08:18:10.253Z,98272.78
2023-04-27T08:21:17.186Z,98281.91
2023-04-27T08:24:24.012Z,98283.78
2023-04-27T08:27:34.918Z,98285.81
2023-04-27T08:30:40.987Z,98290.34
2023-04-27T08:33:47.920Z,98280.28
2023-04-27T08:36:54.382Z,98294.22
2023-04-27T08:40:01.432Z,98295.16
2023-04-27T08:43:12.029Z,98298.94
2023-04-27T08:46:23.168Z,98292.31
2023-04-27T08:49:29.711Z,98291.38
2023-04-27T08:52:37.677Z,98299.03
2023-04-27T08:55:43.735Z,98298.66
2023-04-27T08:58:55.211Z,98298.38
2023-04-27T09:02:01.655Z,98301.47
2023-04-27T09:05:10.164Z,98304.78
2023-04-27T09:08:16.079Z,98302.38
2023-04-27T09:11:35.207Z,98302.44
2023-04-27T09:14:47.257Z,98290.47
2023-04-27T09:17:59.639Z,98296.88
2023-04-27T09:21:14.249Z,98292.13
2023-04-27T09:24:24.906Z,98283.84
2023-04-27T09:27:31.067Z,98290.63
2023-04-27T09:30:40.720Z,98286.59
2023-04-27T09:33:49.045Z,98288.50
2023-04-27T09:36:56.960Z,98293.53
2023-04-27T09:40:05.868Z,98289.91
2023-04-27T09:43:14.826Z,98295.47
2023-04-27T09:46:26.276Z,98292.34
2023-04-27T09:49:36.981Z,98284.47
2023-04-27T09:52:43.165Z,98295.38
2023-04-27T09:56:11.420Z,98296.69
2023-04-27T09:59:45.001Z,98286.91
2023-04-27T10:03:18.223Z,98292.75
2023-04-27T10:07:06.878Z,98287.97
2023-04-27T10:10:22.120Z,98293.41
2023-04-27T10:13:30.392Z,98288.66
2023-04-27T10:16:50.155Z,98295.47
2023-04-27T10:20:02.094Z,98293.53
2023-04-27T10:23:09.320Z,98292.72
2023-04-27T10:26:15.353Z,98289.91
2023-04-27T10:29:22.219Z,98293.69
2023-04-27T10:32:29.875Z,98286.41
2023-04-27T10:35:42.496Z,98286.69
2023-04-27T10:38:48.643Z,98281.50
2023-04-27T10:41:59.342Z,98278.19
2023-04-27T10:45:11.789Z,98284.44
2023-04-27T10:48:18.661Z,98291.56
2023-04-27T10:51:31.292Z,98297.75
2023-04-27T10:54:40.238Z,98289.72
2023-04-27T10:57:51.543Z,98298.63
2023-04-27T11:00:58.353Z,98298.50
2023-04-27T11:04:06.785Z,98293.00
2023-04-27T11:07:26.422Z,98300.81
2023-04-27T11:10:36.950Z,98296.63
2023-04-27T11:13:46.772Z,98300.13
2023-04-27T11:16:53.330Z,98297.19
2023-04-27T11:20:00.411Z,98300.78
2023-04-27T11:23:13.272Z,98304.88
2023-04-27T11:26:22.885Z,98303.88
2023-04-27T11:29:28.958Z,98293.38
2023-04-27T11:32:36.779Z,98303.16
2023-04-27T11:35:43.182Z,98301.09
2023-04-27T11:38:52.956Z,98294.75
2023-04-27T11:41:59.049Z,98306.97
2023-04-27T11:45:09.663Z,98301.31
2023-04-27T11:48:19.338Z,98305.63
2023-04-27T11:51:29.218Z,98298.34
2023-04-27T11:54:38.030Z,98302.97
2023-04-27T11:57:45.678Z,98304.34
2023-04-27T12:00:52.279Z,98308.03
2023-04-27T12:04:02.259Z,98308.09
2023-04-27T12:07:16.948Z,98309.75
2023-04-27T12:10:25.974Z,98308.94
2023-04-27T12:13:32.032Z,98311.25
2023-04-27T12:16:45.436Z,98307.41
2023-04-27T12:19:51.810Z,98310.25
2023-04-27T12:23:01.656Z,98305.38
2023-04-27T12:26:07.829Z,98305.56
2023-04-27T12:29:14.636Z,98295.28
2023-04-27T12:32:20.540Z,98297.28
2023-04-27T12:35:27.682Z,98296.75
2023-04-27T12:38:36.521Z,98297.25
2023-04-27T12:41:43.349Z,98291.72
2023-04-27T12:44:49.230Z,98301.56
2023-04-27T12:48:04.018Z,98299.81
2023-04-27T12:51:10.468Z,98296.59
2023-04-27T12:54:20.218Z,98294.63
2023-04-27T12:57:29.425Z,98294.94
2023-04-27T13:00:37.051Z,98296.31
2023-04-27T13:03:43.215Z,98295.81
2023-04-27T13:06:50.329Z,98297.69
2023-04-27T13:09:59.081Z,98298.63
2023-04-27T13:13:07.313Z,98288.41
2023-04-27T13:16:13.444Z,98289.34
2023-04-27T13:19:20.339Z,98296.31
2023-04-27T13:22:28.514Z,98285.81
2023-04-27T13:25:37.951Z,98275.28
2023-04-27T13:28:44.069Z,98288.72
2023-04-27T13:31:51.004Z,98294.72
2023-04-27T13:34:57.003Z,98291.50
2023-04-27T13:38:03.940Z,98288.56
2023-04-27T13:41:12.890Z,98285.97
2023-04-27T13:44:21.705Z,98285.25
2023-04-27T13:47:29.557Z,98290.19
2023-04-27T13:50:37.258Z,98294.88
2023-04-27T13:53:43.216Z,98288.34
2023-04-27T13:56:58.688Z,98307.19
2023-04-27T14:00:08.169Z,98300.09
2023-04-27T14:03:16.472Z,98295.56
2023-04-27T14:06:22.693Z,98301.25
2023-04-27T14:09:29.625Z,98296.88
2023-04-27T14:12:38.982Z,98304.00
2023-04-27T14:15:46.125Z,98301.31
2023-04-27T14:18:52.632Z,98308.56
2023-04-27T14:22:02.476Z,98304.00
2023-04-27T14:25:10.105Z,98308.16
2023-04-27T14:28:19.756Z,98311.69
2023-04-27T14:31:28.439Z,98313.06
2023-04-27T14:34:35.385Z,98303.69
2023-04-27T14:37:41.391Z,98314.47
2023-04-27T14:40:48.174Z,98316.78
2023-04-27T14:44:05.055Z,98314.03
2023-04-27T14:47:13.912Z,98317.28
2023-04-27T14:50:20.476Z,98310.97
2023-04-27T14:53:27.336Z,98319.09
2023-04-27T14:56:34.037Z,98318.84
2023-04-27T14:59:43.508Z,98321.34
2023-04-27T15:02:49.623Z,98320.16
2023-04-27T15:05:56.524Z,98321.97
2023-04-27T15:09:02.601Z,98323.69
2023-04-27T15:12:12.409Z,98331.41
2023-04-27T15:15:21.263Z,98328.69
2023-04-27T15:18:29.066Z,98334.06
2023-04-27T15:21:35.432Z,98330.38
2023-04-27T15:24:42.239Z,98337.00
2023-04-27T15:27:48.382Z,98334.97
2023-04-27T15:30:57.960Z,98328.88
2023-04-27T15:34:06.712Z,98325.41
2023-04-27T15:37:19.153Z,98330.53
2023-04-27T15:40:29.211Z,98330.06
2023-04-27T15:43:36.732Z,98330.84
2023-04-27T15:46:45.446Z,98326.88
2023-04-27T15:49:58.366Z,98325.16
2023-04-27T15:53:07.966Z,98330.47
2023-04-27T15:56:16.102Z,98319.69
2023-04-27T15:59:22.340Z,98324.91
2023-04-27T16:02:31.863Z,98335.81
2023-04-27T16:05:37.899Z,98332.06
2023-04-27T16:08:44.845Z,98329.28
2023-04-27T16:11:50.856Z,98331.09
2023-04-27T16:15:00.057Z,98335.03
2023-04-27T16:18:09.594Z,98335.50
2023-04-27T16:21:16.969Z,98333.56
2023-04-27T16:24:29.535Z,98341.53
2023-04-27T16:27:36.380Z,98334.38
2023-04-27T16:30:42.565Z,98332.13
2023-04-27T16:33:52.440Z,98334.16
2023-04-27T16:36:58.994Z,98333.81
2023-04-27T16:40:08.510Z,98337.75
2023-04-27T16:43:18.350Z,98340.09
2023-04-27T16:46:25.382Z,98346.44
2023-04-27T16:49:38.742Z,98346.41
2023-04-27T16:52:45.791Z,98349.69
2023-04-27T16:55:53.732Z,98354.59
2023-04-27T16:59:01.661Z,98346.13
2023-04-27T17:02:23.170Z,98351.66
2023-04-27T17:05:45.808Z,98351.47
2023-04-27T17:09:08.520Z,98351.19
2023-04-27T17:12:21.052Z,98354.34
2023-04-27T17:15:28.944Z,98349.19
2023-04-27T17:18:36.241Z,98351.69
2023-04-27T17:21:44.838Z,98357.88
2023-04-27T17:24:51.722Z,98361.50
2023-04-27T17:28:00.109Z,98365.00
2023-04-27T17:31:08.288Z,98358.69
2023-04-27T17:34:14.930Z,98356.88
2023-04-27T17:37:24.413Z,98352.28
2023-04-27T17:40:30.571Z,98352.09
2023-04-27T17:43:37.921Z,98346.63
2023-04-27T17:46:49.942Z,98353.59
2023-04-27T17:49:56.831Z,98352.13
2023-04-27T17:53:05.362Z,98351.34
2023-04-27T17:56:12.326Z,98355.66
2023-04-27T17:59:19.678Z,98358.69
2023-04-27T18:02:26.713Z,98363.31
2023-04-27T18:05:32.962Z,98365.97
2023-04-27T18:08:42.358Z,98372.47
2023-04-27T18:11:51.281Z,98367.28
2023-04-27T18:14:58.887Z,98373.88
2023-04-27T18:18:23.169Z,98371.56
2023-04-27T18:21:33.276Z,98380.19
2023-04-27T18:24:48.513Z,98385.50
2023-04-27T18:27:57.341Z,98373.03
2023-04-27T18:31:03.502Z,98387.09
2023-04-27T18:34:10.226Z,98390.56
2023-04-27T18:37:16.729Z,98389.38
2023-04-27T18:40:26.453Z,98390.03
2023-04-27T18:43:33.903Z,98391.47
2023-04-27T18:46:40.617Z,98390.31
2023-04-27T18:49:46.662Z,98401.38
2023-04-27T18:52:53.666Z,98400.63
2023-04-27T18:56:03.286Z,98393.28
2023-04-27T18:59:10.121Z,98397.25
2023-04-27T19:02:16.272Z,98398.13
2023-04-27T19:05:23.299Z,98396.56
2023-04-27T19:08:29.257Z,98395.50
2023-04-27T19:11:40.127Z,98399.03
2023-04-27T19:14:46.122Z,98406.63
2023-04-27T19:18:02.850Z,98400.81
2023-04-27T19:21:15.891Z,98395.00
2023-04-27T19:24:22.758Z,98401.06
2023-04-27T19:27:31.509Z,98399.84
2023-04-27T19:30:38.516Z,98415.47
2023-04-27T19:33:47.425Z,98412.59
2023-04-27T19:37:01.813Z,98412.53
2023-04-27T19:40:09.769Z,98415.59
2023-04-27T19:43:19.650Z,98408.41
2023-04-27T19:46:26.913Z,98413.31
2023-04-27T19:49:35.800Z,98413.03
2023-04-27T19:52:41.768Z,98408.13
2023-04-27T19:55:51.912Z,98416.59
2023-04-27T19:59:00.515Z,98412.59
2023-04-27T20:02:07.532Z,98410.53
2023-04-27T20:05:13.961Z,98417.22
2023-04-27T20:08:21.002Z,98420.47
2023-04-27T20:11:27.966Z,98415.59
2023-04-27T20:14:39.013Z,98420.22
2023-04-27T20:17:45.147Z,98417.03
2023-04-27T20:20:53.522Z,98412.31
2023-04-27T20:24:07.550Z,98421.78
2023-04-27T20:27:18.730Z,98421.00
2023-04-27T20:30:30.752Z,98419.47
2023-04-27T20:33:38.578Z,98430.03
2023-04-27T20:36:54.556Z,98425.56
2023-04-27T20:40:01.610Z,98429.47
2023-04-27T20:43:08.358Z,98432.13
2023-04-27T20:46:17.769Z,98427.78
2023-04-27T20:49:34.555Z,98427.25
2023-04-27T20:52:42.086Z,98432.13
2023-04-27T20:55:47.970Z,98433.22
2023-04-27T20:58:54.688Z,98429.88
2023-04-27T21:02:10.267Z,98425.03
2023-04-27T21:05:19.006Z,98430.19
2023-04-27T21:08:25.183Z,98431.28
2023-04-27T21:11:31.932Z,98428.50
2023-04-27T21:14:38.000Z,98433.06
2023-04-27T21:17:47.415Z,98426.22
2023-04-27T21:20:53.642Z,98429.41
2023-04-27T21:24:07.264Z,98426.75
2023-04-27T21:27:19.746Z,98428.13
2023-04-27T21:30:27.125Z,98423.69
2023-04-27T21:33:35.784Z,98421.06
2023-04-27T21:36:42.829Z,98424.69
2023-04-27T21:39:48.907Z,98425.63
2023-04-27T21:42:56.711Z,98426.03
2023-04-27T21:46:02.636Z,98430.63
2023-04-27T21:49:20.586Z,98430.75
2023-04-27T21:52:28.009Z,98423.09
2023-04-27T21:55:34.797Z,98430.16
2023-04-27T21:58:40.698Z,98427.56
2023-04-27T22:01:47.434Z,98427.97
2023-04-27T22:04:56.894Z,98431.47
2023-04-27T22:08:03.926Z,98422.31
2023-04-27T22:11:09.803Z,98428.41
2023-04-27T22:14:17.354Z,98427.31
2023-04-27T22:17:26.443Z,98425.50
2023-04-27T22:20:36.177Z,98430.22
2023-04-27T22:23:42.077Z,98435.47
2023-04-27T22:26:48.826Z,98426.03
2023-04-27T22:29:54.730Z,98426.03
2023-04-27T22:33:08.633Z,98425.59
2023-04-27T22:36:22.977Z,98419.63
2023-04-27T22:39:29.803Z,98431.78
2023-04-27T22:42:35.861Z,98429.53
2023-04-27T22:45:42.634Z,98434.53
2023-04-27T22:48:49.054Z,98432.78
2023-04-27T22:51:58.787Z,98432.13
2023-04-27T22:55:15.800Z,98432.28
2023-04-27T22:58:24.593Z,98438.38
2023-04-27T23:01:30.576Z,98431.88
2023-04-27T23:04:37.508Z,98425.50
2023-04-27T23:07:46.718Z,98428.41
2023-04-27T23:10:54.507Z,98427.03
2023-04-27T23:14:00.519Z,98431.38
2023-04-27T23:17:07.726Z,98435.84
2023-04-27T23:20:27.502Z,98426.69
2023-04-27T23:23:37.702Z,98435.84
2023-04-27T23:26:43.527Z,98432.16
2023-04-27T23:29:50.202Z,98436.06
2023-04-27T23:32:56.244Z,98428.88
2023-04-27T23:36:03.237Z,98431.63
2023-04-27T23:39:12.070Z,98421.19
2023-04-27T23:42:19.015Z,98423.13
2023-04-27T23:45:25.005Z,98422.88
2023-04-27T23:48:31.864Z,98424.53
2023-04-27T23:51:37.897Z,98423.66
2023-04-27T23:54:47.275Z,98424.91
2023-04-27T23:57:55.005Z,98420.19
